sensor_id;sensor_type;location;lat;lon;timestamp;pressure;altitude;pressure_sealevel;temperature;humidity
9905;BME280;4991;43.566;27.820;2023-04-04T00:00:18;98211.09;;;8.49;100.00
9905;BME280;4991;43.566;27.820;2023-04-04T00:02:43;98206.28;;;8.46;100.00
9905;BME280;4991;43.566;27.820;2023-04-04T00:05:09;98201.03;;;8.50;100.00
9905;BME280;4991;43.566;27.820;2023-04-04T00:07:35;98184.25;;;8.48;100.00
9905;BME280;4991;43.566;27.820;2023-04-04T00:10:01;98177.03;;;8.43;100.00
9905;BME280;4991;43.566;27.820;2023-04-04T00:12:26;98181.03;;;8.46;100.00
9905;BME280;4991;43.566;27.820;2023-04-04T00:14:52;98193.53;;;8.33;100.00
9905;BME280;4991;43.566;27.820;2023-04-04T00:17:17;98171.31;;;8.31;100.00
9905;BME280;4991;43.566;27.820;2023-04-04T00:19:43;98173.13;;;8.36;100.00
9905;BME280;4991;43.566;27.820;2023-04-04T00:22:09;98158.34;;;8.42;100.00
9905;BME280;4991;43.566;27.820;2023-04-04T00:24:34;98164.69;;;8.37;100.00
9905;BME280;4991;43.566;27.820;2023-04-04T00:27:00;98157.53;;;8.41;100.00
9905;BME280;4991;43.566;27.820;2023-04-04T00:29:26;98159.56;;;8.36;100.00
9905;BME280;4991;43.566;27.820;2023-04-04T00:31:52;98166.19;;;8.30;100.00
9905;BME280;4991;43.566;27.820;2023-04-04T00:34:17;98159.97;;;8.29;100.00
9905;BME280;4991;43.566;27.820;2023-04-04T00:36:43;98148.44;;;8.24;100.00
9905;BME280;4991;43.566;27.820;2023-04-04T00:39:09;98145.72;;;8.24;100.00
9905;BME280;4991;43.566;27.820;2023-04-04T00:41:35;98138.38;;;8.24;100.00
9905;BME280;4991;43.566;27.820;2023-04-04T00:44:01;98131.25;;;8.28;100.00
9905;BME280;4991;43.566;27.820;2023-04-04T00:46:27;98118.97;;;8.31;100.00
9905;BME280;4991;43.566;27.820;2023-04-04T00:48:54;98119.47;;;8.33;100.00
9905;BME280;4991;43.566;27.820;2023-04-04T00:51:19;98118.50;;;8.29;100.00
9905;BME280;4991;43.566;27.820;2023-04-04T00:53:46;98105.72;;;8.29;100.00
9905;BME280;4991;43.566;27.820;2023-04-04T00:56:13;98107.84;;;8.32;100.00
9905;BME280;4991;43.566;27.820;2023-04-04T00:58:40;98106.94;;;8.23;100.00
9905;BME280;4991;43.566;27.820;2023-04-04T01:01:07;98102.09;;;8.20;100.00
9905;BME280;4991;43.566;27.820;2023-04-04T01:03:33;98104.94;;;8.15;100.00
9905;BME280;4991;43.566;27.820;2023-04-04T01:06:00;98089.94;;;8.18;100.00
9905;BME280;4991;43.566;27.820;2023-04-04T01:08:27;98077.19;;;8.18;100.00
9905;BME280;4991;43.566;27.820;2023-04-04T01:10:53;98073.88;;;8.21;100.00
9905;BME280;4991;43.566;27.820;2023-04-04T01:13:19;98072.59;;;8.19;100.00
9905;BME280;4991;43.566;27.820;2023-04-04T01:15:45;98061.53;;;8.15;100.00
9905;BME280;4991;43.566;27.820;2023-04-04T01:18:14;98054.31;;;8.24;100.00
9905;BME280;4991;43.566;27.820;2023-04-04T01:20:49;98064.66;;;8.22;100.00
9905;BME280;4991;43.566;27.820;2023-04-04T01:23:17;98057.72;;;8.16;100.00
9905;BME280;4991;43.566;27.820;2023-04-04T01:25:45;98050.19;;;8.13;100.00
9905;BME280;4991;43.566;27.820;2023-04-04T01:28:10;98052.91;;;8.13;100.00
9905;BME280;4991;43.566;27.820;2023-04-04T01:30:38;98047.16;;;8.15;100.00
9905;BME280;4991;43.566;27.820;2023-04-04T01:33:23;98021.97;;;8.14;100.00
9905;BME280;4991;43.566;27.820;2023-04-04T01:36:16;98028.00;;;8.11;100.00
9905;BME280;4991;43.566;27.820;2023-04-04T01:41:16;98028.56;;;8.22;100.00
9905;BME280;4991;43.566;27.820;2023-04-04T01:43:44;98036.63;;;8.13;100.00
9905;BME280;4991;43.566;27.820;2023-04-04T01:46:16;98032.53;;;8.16;100.00
9905;BME280;4991;43.566;27.820;2023-04-04T01:48:42;98030.78;;;8.20;100.00
9905;BME280;4991;43.566;27.820;2023-04-04T01:51:08;98017.03;;;8.16;100.00
9905;BME280;4991;43.566;27.820;2023-04-04T01:53:35;98013.94;;;8.09;100.00
9905;BME280;4991;43.566;27.820;2023-04-04T01:56:01;98015.97;;;8.04;100.00
9905;BME280;4991;43.566;27.820;2023-04-04T01:58:27;98008.94;;;8.03;100.00
9905;BME280;4991;43.566;27.820;2023-04-04T02:00:54;98010.69;;;7.99;100.00
9905;BME280;4991;43.566;27.820;2023-04-04T02:03:19;97993.78;;;8.02;100.00
9905;BME280;4991;43.566;27.820;2023-04-04T02:05:45;98004.25;;;7.95;100.00
9905;BME280;4991;43.566;27.820;2023-04-04T02:08:10;97986.09;;;7.95;100.00
9905;BME280;4991;43.566;27.820;2023-04-04T02:10:36;97992.91;;;7.93;100.00
9905;BME280;4991;43.566;27.820;2023-04-04T02:13:02;97984.50;;;7.94;100.00
9905;BME280;4991;43.566;27.820;2023-04-04T02:15:27;97988.91;;;7.90;100.00
9905;BME280;4991;43.566;27.820;2023-04-04T02:17:53;97995.75;;;7.88;100.00
9905;BME280;4991;43.566;27.820;2023-04-04T02:20:19;97981.69;;;7.85;100.00
9905;BME280;4991;43.566;27.820;2023-04-04T02:22:52;97980.09;;;7.84;100.00
9905;BME280;4991;43.566;27.820;2023-04-04T02:25:22;97977.06;;;7.86;100.00
9905;BME280;4991;43.566;27.820;2023-04-04T02:27:48;97957.94;;;7.82;100.00
9905;BME280;4991;43.566;27.820;2023-04-04T02:30:14;97963.47;;;7.77;100.00
9905;BME280;4991;43.566;27.820;2023-04-04T02:32:40;97956.13;;;7.78;100.00
9905;BME280;4991;43.566;27.820;2023-04-04T02:35:05;97938.88;;;7.74;100.00
9905;BME280;4991;43.566;27.820;2023-04-04T02:37:31;97956.03;;;7.69;100.00
9905;BME280;4991;43.566;27.820;2023-04-04T02:39:57;97954.25;;;7.65;100.00
9905;BME280;4991;43.566;27.820;2023-04-04T02:42:22;97954.44;;;7.68;100.00
9905;BME280;4991;43.566;27.820;2023-04-04T02:44:48;97949.94;;;7.64;100.00
9905;BME280;4991;43.566;27.820;2023-04-04T02:47:14;97946.13;;;7.65;100.00
9905;BME280;4991;43.566;27.820;2023-04-04T02:49:39;97938.50;;;7.67;100.00
9905;BME280;4991;43.566;27.820;2023-04-04T02:52:05;97939.50;;;7.71;100.00
9905;BME280;4991;43.566;27.820;2023-04-04T02:54:32;97937.38;;;7.68;100.00
9905;BME280;4991;43.566;27.820;2023-04-04T02:56:58;97937.00;;;7.61;100.00
9905;BME280;4991;43.566;27.820;2023-04-04T02:59:23;97953.16;;;7.66;100.00
9905;BME280;4991;43.566;27.820;2023-04-04T03:01:50;97953.63;;;7.68;100.00
9905;BME280;4991;43.566;27.820;2023-04-04T03:04:15;97928.94;;;7.69;100.00
9905;BME280;4991;43.566;27.820;2023-04-04T03:06:44;97940.09;;;7.68;100.00
9905;BME280;4991;43.566;27.820;2023-04-04T03:09:11;97939.00;;;7.69;100.00
9905;BME280;4991;43.566;27.820;2023-04-04T03:11:36;97939.31;;;7.67;100.00
9905;BME280;4991;43.566;27.820;2023-04-04T03:14:02;97953.03;;;7.71;100.00
9905;BME280;4991;43.566;27.820;2023-04-04T03:16:27;97938.06;;;7.73;100.00
9905;BME280;4991;43.566;27.820;2023-04-04T03:18:54;97933.25;;;7.70;100.00
9905;BME280;4991;43.566;27.820;2023-04-04T03:21:20;97939.34;;;7.76;100.00
9905;BME280;4991;43.566;27.820;2023-04-04T03:23:45;97933.47;;;7.74;100.00
9905;BME280;4991;43.566;27.820;2023-04-04T03:26:11;97933.34;;;7.79;100.00
9905;BME280;4991;43.566;27.820;2023-04-04T03:28:37;97943.25;;;7.83;100.00
9905;BME280;4991;43.566;27.820;2023-04-04T03:31:05;97938.66;;;7.84;100.00
9905;BME280;4991;43.566;27.820;2023-04-04T03:33:34;97941.34;;;7.84;100.00
9905;BME280;4991;43.566;27.820;2023-04-04T03:36:00;97941.81;;;7.86;100.00
9905;BME280;4991;43.566;27.820;2023-04-04T03:38:25;97940.25;;;7.85;100.00
9905;BME280;4991;43.566;27.820;2023-04-04T03:41:00;97928.91;;;7.83;100.00
9905;BME280;4991;43.566;27.820;2023-04-04T03:43:26;97918.88;;;7.83;100.00
9905;BME280;4991;43.566;27.820;2023-04-04T03:45:53;97919.69;;;7.84;100.00
9905;BME280;4991;43.566;27.820;2023-04-04T03:48:19;97931.00;;;7.86;100.00
9905;BME280;4991;43.566;27.820;2023-04-04T03:50:45;97930.41;;;7.89;100.00
9905;BME280;4991;43.566;27.820;2023-04-04T03:53:13;97945.53;;;7.90;100.00
9905;BME280;4991;43.566;27.820;2023-04-04T03:55:42;97932.78;;;7.91;100.00
9905;BME280;4991;43.566;27.820;2023-04-04T03:58:07;97936.13;;;7.88;100.00
9905;BME280;4991;43.566;27.820;2023-04-04T04:00:33;97933.00;;;7.94;100.00
9905;BME280;4991;43.566;27.820;2023-04-04T04:02:58;97935.69;;;7.94;100.00
9905;BME280;4991;43.566;27.820;2023-04-04T04:05:24;97951.97;;;7.94;100.00
9905;BME280;4991;43.566;27.820;2023-04-04T04:07:50;97940.31;;;7.94;100.00
9905;BME280;4991;43.566;27.820;2023-04-04T04:10:17;97947.81;;;7.97;100.00
9905;BME280;4991;43.566;27.820;2023-04-04T04:12:43;97959.03;;;8.04;100.00
9905;BME280;4991;43.566;27.820;2023-04-04T04:15:10;97948.94;;;7.96;100.00
9905;BME280;4991;43.566;27.820;2023-04-04T04:17:39;97956.75;;;7.97;100.00
9905;BME280;4991;43.566;27.820;2023-04-04T04:20:08;97952.13;;;7.98;100.00
9905;BME280;4991;43.566;27.820;2023-04-04T04:22:34;97941.59;;;7.96;100.00
9905;BME280;4991;43.566;27.820;2023-04-04T04:25:01;97945.63;;;7.99;100.00
9905;BME280;4991;43.566;27.820;2023-04-04T04:27:26;97950.72;;;8.00;100.00
9905;BME280;4991;43.566;27.820;2023-04-04T04:29:52;97962.06;;;8.02;100.00
9905;BME280;4991;43.566;27.820;2023-04-04T04:32:18;97973.09;;;8.06;100.00
9905;BME280;4991;43.566;27.820;2023-04-04T04:34:44;97973.41;;;8.04;100.00
9905;BME280;4991;43.566;27.820;2023-04-04T04:37:09;97971.78;;;8.03;100.00
9905;BME280;4991;43.566;27.820;2023-04-04T04:39:35;97970.72;;;8.04;100.00
9905;BME280;4991;43.566;27.820;2023-04-04T04:42:01;97971.19;;;8.06;100.00
9905;BME280;4991;43.566;27.820;2023-04-04T04:44:27;97982.75;;;7.98;100.00
9905;BME280;4991;43.566;27.820;2023-04-04T04:46:53;97973.53;;;7.99;100.00
9905;BME280;4991;43.566;27.820;2023-04-04T04:49:18;97971.28;;;8.01;100.00
9905;BME280;4991;43.566;27.820;2023-04-04T04:51:45;97969.00;;;7.95;100.00
9905;BME280;4991;43.566;27.820;2023-04-04T04:54:10;97975.75;;;7.97;100.00
9905;BME280;4991;43.566;27.820;2023-04-04T04:56:37;97977.94;;;7.95;100.00
9905;BME280;4991;43.566;27.820;2023-04-04T04:59:02;97981.47;;;7.96;100.00
9905;BME280;4991;43.566;27.820;2023-04-04T05:01:28;97978.25;;;7.94;100.00
9905;BME280;4991;43.566;27.820;2023-04-04T05:03:54;97962.31;;;7.92;100.00
9905;BME280;4991;43.566;27.820;2023-04-04T05:06:19;97952.56;;;7.91;100.00
9905;BME280;4991;43.566;27.820;2023-04-04T05:08:45;97930.72;;;7.88;100.00
9905;BME280;4991;43.566;27.820;2023-04-04T05:11:11;97909.25;;;7.77;100.00
9905;BME280;4991;43.566;27.820;2023-04-04T05:13:37;97903.53;;;7.79;100.00
9905;BME280;4991;43.566;27.820;2023-04-04T05:16:02;97890.09;;;7.74;100.00
9905;BME280;4991;43.566;27.820;2023-04-04T05:18:29;97856.22;;;7.63;100.00
9905;BME280;4991;43.566;27.820;2023-04-04T05:20:55;97880.34;;;7.73;100.00
9905;BME280;4991;43.566;27.820;2023-04-04T05:23:21;97871.25;;;7.69;100.00
9905;BME280;4991;43.566;27.820;2023-04-04T05:25:51;97868.84;;;7.67;100.00
9905;BME280;4991;43.566;27.820;2023-04-04T05:28:18;97867.13;;;7.71;100.00
9905;BME280;4991;43.566;27.820;2023-04-04T05:30:43;97872.72;;;7.75;100.00
9905;BME280;4991;43.566;27.820;2023-04-04T05:33:09;97859.78;;;7.72;100.00
9905;BME280;4991;43.566;27.820;2023-04-04T05:35:35;97863.13;;;7.69;100.00
9905;BME280;4991;43.566;27.820;2023-04-04T05:38:00;97870.13;;;7.70;100.00
9905;BME280;4991;43.566;27.820;2023-04-04T05:40:27;97862.81;;;7.70;100.00
9905;BME280;4991;43.566;27.820;2023-04-04T05:45:19;97869.50;;;7.73;100.00
9905;BME280;4991;43.566;27.820;2023-04-04T05:47:45;97874.03;;;7.77;100.00
9905;BME280;4991;43.566;27.820;2023-04-04T05:50:11;97886.66;;;7.82;100.00
9905;BME280;4991;43.566;27.820;2023-04-04T05:52:36;97886.03;;;7.85;100.00
9905;BME280;4991;43.566;27.820;2023-04-04T05:55:02;97886.66;;;7.82;100.00
9905;BME280;4991;43.566;27.820;2023-04-04T05:57:27;97901.06;;;7.91;100.00
9905;BME280;4991;43.566;27.820;2023-04-04T05:59:53;97897.56;;;7.91;100.00
9905;BME280;4991;43.566;27.820;2023-04-04T06:02:18;97903.63;;;7.96;100.00
9905;BME280;4991;43.566;27.820;2023-04-04T06:04:44;97904.13;;;7.98;100.00
9905;BME280;4991;43.566;27.820;2023-04-04T06:07:10;97916.09;;;7.97;100.00
9905;BME280;4991;43.566;27.820;2023-04-04T06:09:35;97916.28;;;8.01;100.00
9905;BME280;4991;43.566;27.820;2023-04-04T06:12:01;97929.53;;;8.02;100.00
9905;BME280;4991;43.566;27.820;2023-04-04T06:14:29;97921.41;;;8.02;100.00
9905;BME280;4991;43.566;27.820;2023-04-04T06:16:55;97921.75;;;8.09;100.00
9905;BME280;4991;43.566;27.820;2023-04-04T06:19:21;97922.19;;;8.03;100.00
9905;BME280;4991;43.566;27.820;2023-04-04T06:21:47;97921.09;;;8.04;100.00
9905;BME280;4991;43.566;27.820;2023-04-04T06:24:12;97915.34;;;8.05;100.00
9905;BME280;4991;43.566;27.820;2023-04-04T06:26:38;97916.63;;;8.08;100.00
9905;BME280;4991;43.566;27.820;2023-04-04T06:29:04;97920.34;;;8.12;100.00
9905;BME280;4991;43.566;27.820;2023-04-04T06:31:29;97920.66;;;8.10;100.00
9905;BME280;4991;43.566;27.820;2023-04-04T06:33:56;97913.94;;;8.08;100.00
9905;BME280;4991;43.566;27.820;2023-04-04T06:36:22;97940.00;;;8.17;100.00
9905;BME280;4991;43.566;27.820;2023-04-04T06:38:48;97945.75;;;8.16;100.00
9905;BME280;4991;43.566;27.820;2023-04-04T06:41:13;97943.31;;;8.14;100.00
9905;BME280;4991;43.566;27.820;2023-04-04T06:43:39;97937.91;;;8.14;100.00
9905;BME280;4991;43.566;27.820;2023-04-04T06:46:05;97940.31;;;8.16;100.00
9905;BME280;4991;43.566;27.820;2023-04-04T06:48:31;97924.84;;;8.16;100.00
9905;BME280;4991;43.566;27.820;2023-04-04T06:50:56;97914.63;;;8.13;100.00
9905;BME280;4991;43.566;27.820;2023-04-04T06:53:22;97920.22;;;8.17;100.00
9905;BME280;4991;43.566;27.820;2023-04-04T06:55:48;97929.94;;;8.18;100.00
9905;BME280;4991;43.566;27.820;2023-04-04T06:58:14;97932.84;;;8.21;100.00
9905;BME280;4991;43.566;27.820;2023-04-04T07:00:39;97942.41;;;8.19;100.00
9905;BME280;4991;43.566;27.820;2023-04-04T07:03:05;97937.19;;;8.22;100.00
9905;BME280;4991;43.566;27.820;2023-04-04T07:05:36;97936.81;;;8.15;100.00
9905;BME280;4991;43.566;27.820;2023-04-04T07:08:03;97930.84;;;8.27;100.00
9905;BME280;4991;43.566;27.820;2023-04-04T07:10:29;97909.78;;;8.24;100.00
9905;BME280;4991;43.566;27.820;2023-04-04T07:12:54;97902.41;;;8.24;100.00
9905;BME280;4991;43.566;27.820;2023-04-04T07:15:20;97898.63;;;8.25;100.00
9905;BME280;4991;43.566;27.820;2023-04-04T07:17:45;97883.94;;;8.26;100.00
9905;BME280;4991;43.566;27.820;2023-04-04T07:20:11;97874.53;;;8.24;100.00
9905;BME280;4991;43.566;27.820;2023-04-04T07:22:38;97876.78;;;8.30;100.00
9905;BME280;4991;43.566;27.820;2023-04-04T07:25:05;97861.47;;;8.34;100.00
9905;BME280;4991;43.566;27.820;2023-04-04T07:27:31;97853.47;;;8.29;100.00
9905;BME280;4991;43.566;27.820;2023-04-04T07:29:56;97846.13;;;8.30;100.00
9905;BME280;4991;43.566;27.820;2023-04-04T07:32:22;97845.50;;;8.33;100.00
9905;BME280;4991;43.566;27.820;2023-04-04T07:34:48;97831.47;;;8.31;100.00
9905;BME280;4991;43.566;27.820;2023-04-04T07:37:14;97831.47;;;8.31;100.00
9905;BME280;4991;43.566;27.820;2023-04-04T07:39:40;97799.75;;;8.09;100.00
9905;BME280;4991;43.566;27.820;2023-04-04T07:42:06;97819.47;;;8.23;100.00
9905;BME280;4991;43.566;27.820;2023-04-04T07:44:32;97835.28;;;8.30;100.00
9905;BME280;4991;43.566;27.820;2023-04-04T07:46:58;97843.13;;;8.31;100.00
9905;BME280;4991;43.566;27.820;2023-04-04T07:49:23;97843.59;;;8.33;100.00
9905;BME280;4991;43.566;27.820;2023-04-04T07:51:49;97833.88;;;8.32;100.00
9905;BME280;4991;43.566;27.820;2023-04-04T07:54:14;97814.41;;;8.30;100.00
9905;BME280;4991;43.566;27.820;2023-04-04T07:56:40;97815.03;;;8.36;100.00
9905;BME280;4991;43.566;27.820;2023-04-04T07:59:06;97806.47;;;8.42;100.00
9905;BME280;4991;43.566;27.820;2023-04-04T08:01:31;97786.19;;;8.40;100.00
9905;BME280;4991;43.566;27.820;2023-04-04T08:03:57;97772.00;;;8.43;100.00
9905;BME280;4991;43.566;27.820;2023-04-04T08:06:23;97781.75;;;8.44;100.00
9905;BME280;4991;43.566;27.820;2023-04-04T08:08:49;97782.06;;;8.42;100.00
9905;BME280;4991;43.566;27.820;2023-04-04T08:11:16;97794.38;;;8.48;100.00
9905;BME280;4991;43.566;27.820;2023-04-04T08:13:43;97791.16;;;8.46;100.00
9905;BME280;4991;43.566;27.820;2023-04-04T08:16:08;97806.03;;;8.49;100.00
9905;BME280;4991;43.566;27.820;2023-04-04T08:18:34;97805.88;;;8.54;100.00
9905;BME280;4991;43.566;27.820;2023-04-04T08:21:00;97792.59;;;8.52;100.00
9905;BME280;4991;43.566;27.820;2023-04-04T08:23:25;97804.22;;;8.44;100.00
9905;BME280;4991;43.566;27.820;2023-04-04T08:25:51;97795.31;;;8.52;100.00
9905;BME280;4991;43.566;27.820;2023-04-04T08:28:18;97787.19;;;8.52;100.00
9905;BME280;4991;43.566;27.820;2023-04-04T08:30:43;97795.66;;;8.59;100.00
9905;BME280;4991;43.566;27.820;2023-04-04T08:33:09;97794.72;;;8.55;100.00
9905;BME280;4991;43.566;27.820;2023-04-04T08:35:35;97798.53;;;8.54;100.00
9905;BME280;4991;43.566;27.820;2023-04-04T08:38:01;97794.22;;;8.53;100.00
9905;BME280;4991;43.566;27.820;2023-04-04T08:40:31;97776.66;;;8.59;100.00
9905;BME280;4991;43.566;27.820;2023-04-04T08:42:57;97766.91;;;8.50;100.00
9905;BME280;4991;43.566;27.820;2023-04-04T08:45:24;97771.06;;;8.56;100.00
9905;BME280;4991;43.566;27.820;2023-04-04T08:47:52;97770.47;;;8.59;100.00
9905;BME280;4991;43.566;27.820;2023-04-04T08:50:18;97758.47;;;8.51;100.00
9905;BME280;4991;43.566;27.820;2023-04-04T08:52:45;97740.41;;;8.38;100.00
9905;BME280;4991;43.566;27.820;2023-04-04T08:55:11;97752.06;;;8.56;100.00
9905;BME280;4991;43.566;27.820;2023-04-04T08:57:38;97757.19;;;8.57;100.00
9905;BME280;4991;43.566;27.820;2023-04-04T09:00:04;97764.28;;;8.75;100.00
9905;BME280;4991;43.566;27.820;2023-04-04T09:02:59;97777.84;;;8.75;100.00
9905;BME280;4991;43.566;27.820;2023-04-04T09:05:24;97774.66;;;8.82;100.00
9905;BME280;4991;43.566;27.820;2023-04-04T09:07:50;97784.41;;;8.91;100.00
9905;BME280;4991;43.566;27.820;2023-04-04T09:10:16;97781.38;;;8.93;100.00
9905;BME280;4991;43.566;27.820;2023-04-04T09:12:44;97780.06;;;8.90;100.00
9905;BME280;4991;43.566;27.820;2023-04-04T09:15:12;97786.31;;;8.91;100.00
9905;BME280;4991;43.566;27.820;2023-04-04T09:17:38;97793.34;;;9.00;100.00
9905;BME280;4991;43.566;27.820;2023-04-04T09:22:59;97786.50;;;9.11;100.00
9905;BME280;4991;43.566;27.820;2023-04-04T09:25:25;97789.53;;;9.18;100.00
9905;BME280;4991;43.566;27.820;2023-04-04T09:27:51;97780.59;;;9.18;100.00
9905;BME280;4991;43.566;27.820;2023-04-04T09:30:18;97781.38;;;9.18;100.00
9905;BME280;4991;43.566;27.820;2023-04-04T09:32:44;97785.56;;;9.25;100.00
9905;BME280;4991;43.566;27.820;2023-04-04T09:35:11;97783.97;;;9.15;100.00
9905;BME280;4991;43.566;27.820;2023-04-04T09:37:40;97788.28;;;9.25;100.00
9905;BME280;4991;43.566;27.820;2023-04-04T09:40:09;97790.69;;;9.35;100.00
9905;BME280;4991;43.566;27.820;2023-04-04T09:42:35;97795.31;;;9.34;100.00
9905;BME280;4991;43.566;27.820;2023-04-04T09:45:01;97797.53;;;9.32;100.00
9905;BME280;4991;43.566;27.820;2023-04-04T09:47:28;97787.97;;;9.35;100.00
9905;BME280;4991;43.566;27.820;2023-04-04T09:49:58;97800.56;;;9.48;100.00
9905;BME280;4991;43.566;27.820;2023-04-04T09:52:24;97801.69;;;9.55;100.00
9905;BME280;4991;43.566;27.820;2023-04-04T09:55:02;97806.66;;;9.53;100.00
9905;BME280;4991;43.566;27.820;2023-04-04T09:57:29;97810.16;;;9.62;100.00
9905;BME280;4991;43.566;27.820;2023-04-04T10:00:03;97813.84;;;9.66;100.00
9905;BME280;4991;43.566;27.820;2023-04-04T10:02:31;97800.09;;;9.71;100.00
9905;BME280;4991;43.566;27.820;2023-04-04T10:04:58;97798.34;;;9.58;100.00
9905;BME280;4991;43.566;27.820;2023-04-04T10:07:26;97796.22;;;9.72;100.00
9905;BME280;4991;43.566;27.820;2023-04-04T10:09:53;97793.81;;;9.88;100.00
9905;BME280;4991;43.566;27.820;2023-04-04T10:12:24;97787.56;;;9.87;100.00
9905;BME280;4991;43.566;27.820;2023-04-04T10:14:57;97792.69;;;9.89;100.00
9905;BME280;4991;43.566;27.820;2023-04-04T10:17:24;97803.06;;;9.87;100.00
9905;BME280;4991;43.566;27.820;2023-04-04T10:19:51;97801.31;;;9.99;100.00
9905;BME280;4991;43.566;27.820;2023-04-04T10:22:19;97797.13;;;10.02;100.00
9905;BME280;4991;43.566;27.820;2023-04-04T10:24:45;97784.66;;;10.09;100.00
9905;BME280;4991;43.566;27.820;2023-04-04T10:27:11;97798.59;;;9.99;100.00
9905;BME280;4991;43.566;27.820;2023-04-04T10:29:36;97801.47;;;10.03;100.00
9905;BME280;4991;43.566;27.820;2023-04-04T10:32:05;97790.44;;;9.99;100.00
9905;BME280;4991;43.566;27.820;2023-04-04T10:34:57;97792.16;;;10.04;100.00
9905;BME280;4991;43.566;27.820;2023-04-04T10:37:26;97785.47;;;10.01;100.00
9905;BME280;4991;43.566;27.820;2023-04-04T10:40:08;97788.31;;;10.13;100.00
9905;BME280;4991;43.566;27.820;2023-04-04T10:42:40;97782.41;;;10.03;100.00
9905;BME280;4991;43.566;27.820;2023-04-04T10:45:08;97766.44;;;10.01;100.00
9905;BME280;4991;43.566;27.820;2023-04-04T10:47:38;97782.88;;;10.13;100.00
9905;BME280;4991;43.566;27.820;2023-04-04T10:50:04;97795.19;;;10.19;100.00
9905;BME280;4991;43.566;27.820;2023-04-04T10:52:36;97791.31;;;10.29;100.00
9905;BME280;4991;43.566;27.820;2023-04-04T10:55:05;97791.19;;;10.00;100.00
9905;BME280;4991;43.566;27.820;2023-04-04T10:57:44;97797.28;;;10.14;100.00
9905;BME280;4991;43.566;27.820;2023-04-04T11:00:13;97795.81;;;10.16;100.00
9905;BME280;4991;43.566;27.820;2023-04-04T11:05:14;97796.13;;;10.23;100.00
9905;BME280;4991;43.566;27.820;2023-04-04T11:07:44;97794.38;;;10.19;100.00
9905;BME280;4991;43.566;27.820;2023-04-04T11:10:15;97792.56;;;10.31;100.00
9905;BME280;4991;43.566;27.820;2023-04-04T11:12:45;97788.41;;;10.34;100.00
9905;BME280;4991;43.566;27.820;2023-04-04T11:15:13;97797.41;;;10.26;100.00
9905;BME280;4991;43.566;27.820;2023-04-04T11:18:00;97803.78;;;10.30;100.00
9905;BME280;4991;43.566;27.820;2023-04-04T11:20:31;97802.81;;;10.34;100.00
9905;BME280;4991;43.566;27.820;2023-04-04T11:23:21;97813.03;;;10.46;100.00
9905;BME280;4991;43.566;27.820;2023-04-04T11:25:54;97811.13;;;10.38;100.00
9905;BME280;4991;43.566;27.820;2023-04-04T11:34:14;97793.16;;;10.46;100.00
9905;BME280;4991;43.566;27.820;2023-04-04T11:39:14;97791.59;;;10.45;100.00
9905;BME280;4991;43.566;27.820;2023-04-04T11:42:12;97792.28;;;10.62;100.00
9905;BME280;4991;43.566;27.820;2023-04-04T11:49:37;97775.72;;;10.38;100.00
9905;BME280;4991;43.566;27.820;2023-04-04T11:52:11;97788.94;;;10.57;100.00
9905;BME280;4991;43.566;27.820;2023-04-04T11:54:38;97792.00;;;10.55;100.00
9905;BME280;4991;43.566;27.820;2023-04-04T11:57:21;97788.44;;;10.63;100.00
9905;BME280;4991;43.566;27.820;2023-04-04T12:02:25;97774.03;;;10.63;100.00
9905;BME280;4991;43.566;27.820;2023-04-04T12:04:59;97775.97;;;10.62;100.00
9905;BME280;4991;43.566;27.820;2023-04-04T12:07:24;97767.94;;;10.66;100.00
9905;BME280;4991;43.566;27.820;2023-04-04T12:09:51;97768.25;;;10.64;100.00
9905;BME280;4991;43.566;27.820;2023-04-04T12:12:17;97771.06;;;10.76;100.00
9905;BME280;4991;43.566;27.820;2023-04-04T12:14:43;97773.47;;;10.78;100.00
9905;BME280;4991;43.566;27.820;2023-04-04T12:17:09;97783.13;;;10.67;100.00
9905;BME280;4991;43.566;27.820;2023-04-04T12:19:36;97779.66;;;10.58;100.00
9905;BME280;4991;43.566;27.820;2023-04-04T12:22:05;97773.28;;;10.54;100.00
9905;BME280;4991;43.566;27.820;2023-04-04T12:24:32;97769.50;;;10.37;100.00
9905;BME280;4991;43.566;27.820;2023-04-04T12:26:58;97770.38;;;10.59;100.00
9905;BME280;4991;43.566;27.820;2023-04-04T12:29:25;97767.97;;;10.57;100.00
9905;BME280;4991;43.566;27.820;2023-04-04T12:31:54;97757.94;;;10.49;100.00
9905;BME280;4991;43.566;27.820;2023-04-04T12:34:24;97766.69;;;10.55;100.00
9905;BME280;4991;43.566;27.820;2023-04-04T12:36:56;97766.75;;;10.75;100.00
9905;BME280;4991;43.566;27.820;2023-04-04T12:39:25;97763.69;;;10.77;100.00
9905;BME280;4991;43.566;27.820;2023-04-04T12:41:59;97765.69;;;10.68;100.00
9905;BME280;4991;43.566;27.820;2023-04-04T12:44:36;97759.44;;;10.67;100.00
9905;BME280;4991;43.566;27.820;2023-04-04T12:47:07;97758.56;;;10.75;100.00
9905;BME280;4991;43.566;27.820;2023-04-04T12:49:40;97761.06;;;10.60;100.00
9905;BME280;4991;43.566;27.820;2023-04-04T12:52:37;97765.25;;;10.57;100.00
9905;BME280;4991;43.566;27.820;2023-04-04T12:55:08;97758.91;;;10.74;100.00
9905;BME280;4991;43.566;27.820;2023-04-04T12:57:35;97762.16;;;10.67;100.00
9905;BME280;4991;43.566;27.820;2023-04-04T13:00:03;97755.44;;;10.65;100.00
9905;BME280;4991;43.566;27.820;2023-04-04T13:02:30;97755.38;;;10.73;100.00
9905;BME280;4991;43.566;27.820;2023-04-04T13:04:59;97755.03;;;10.75;100.00
9905;BME280;4991;43.566;27.820;2023-04-04T13:07:30;97748.44;;;10.84;100.00
9905;BME280;4991;43.566;27.820;2023-04-04T13:10:02;97755.22;;;10.99;100.00
9905;BME280;4991;43.566;27.820;2023-04-04T13:12:55;97751.22;;;10.96;100.00
9905;BME280;4991;43.566;27.820;2023-04-04T13:15:42;97757.72;;;10.83;100.00
9905;BME280;4991;43.566;27.820;2023-04-04T13:18:18;97759.06;;;10.77;100.00
9905;BME280;4991;43.566;27.820;2023-04-04T13:20:46;97753.66;;;10.69;100.00
9905;BME280;4991;43.566;27.820;2023-04-04T13:23:13;97756.09;;;10.62;100.00
9905;BME280;4991;43.566;27.820;2023-04-04T13:25:39;97762.00;;;10.64;100.00
9905;BME280;4991;43.566;27.820;2023-04-04T13:28:04;97759.31;;;10.55;100.00
9905;BME280;4991;43.566;27.820;2023-04-04T13:30:30;97769.31;;;10.72;100.00
9905;BME280;4991;43.566;27.820;2023-04-04T13:32:56;97759.81;;;10.57;100.00
9905;BME280;4991;43.566;27.820;2023-04-04T13:35:22;97755.94;;;10.58;100.00